Time;durP1;ratioP1;P1;durP2;ratioP2;P2;SDS_P1;SDS_P2;PMS_P1;PMS_P2;Temp;Humidity;BMP_temperature;BMP_pressure;BME280_temperature;BME280_humidity;BME280_pressure;Samples;Min_cycle;Max_cycle;Signal;HPM_P1;HPM_P2
2022/03/26 00:00:26;;;;;;;6.67;2.53;;;20.60;82.80;;;;;;5051519;28;20540;-74
2022/03/26 00:02:53;;;;;;;4.67;2.03;;;20.70;83.20;;;;;;5049599;28;20171;-77
2022/03/26 00:05:20;;;;;;;7.63;2.53;;;20.70;84.10;;;;;;5050371;28;20182;-74
2022/03/26 00:07:48;;;;;;;8.77;2.13;;;20.80;84.00;;;;;;5042353;28;20314;-74
2022/03/26 00:10:16;;;;;;;7.20;2.03;;;21.00;83.50;;;;;;5053468;28;22238;-73
2022/03/26 00:12:43;;;;;;;6.17;1.70;;;21.10;82.80;;;;;;5052662;28;20191;-73
2022/03/26 00:15:12;;;;;;;6.77;1.80;;;21.20;82.80;;;;;;5052279;28;20259;-72
2022/03/26 00:17:40;;;;;;;4.27;1.40;;;21.30;82.10;;;;;;5051968;28;20711;-74
2022/03/26 00:20:08;;;;;;;5.30;1.97;;;21.30;81.50;;;;;;5034682;28;20184;-73
2022/03/26 00:22:36;;;;;;;10.17;1.90;;;21.30;80.00;;;;;;5040576;28;20187;-73
2022/03/26 00:25:04;;;;;;;4.40;1.73;;;21.30;80.80;;;;;;5048432;28;20176;-73
2022/03/26 00:27:32;;;;;;;5.97;1.70;;;21.30;79.60;;;;;;5033267;28;20220;-72
2022/03/26 00:30:00;;;;;;;8.43;1.87;;;21.30;79.70;;;;;;5033115;28;20264;-72
2022/03/26 00:32:28;;;;;;;6.93;1.90;;;21.30;79.70;;;;;;5053808;28;20283;-71
2022/03/26 00:34:55;;;;;;;4.63;1.40;;;21.40;80.60;;;;;;5045158;28;20224;-72
2022/03/26 00:37:23;;;;;;;10.27;1.77;;;21.40;79.70;;;;;;5043262;28;20284;-71
2022/03/26 00:39:50;;;;;;;4.57;1.30;;;21.40;79.40;;;;;;5042212;28;20216;-72
2022/03/26 00:42:18;;;;;;;10.67;2.10;;;21.50;79.20;;;;;;5048802;28;20183;-72
2022/03/26 00:44:46;;;;;;;6.40;1.80;;;21.50;78.90;;;;;;5043972;28;20545;-72
2022/03/26 00:47:13;;;;;;;5.67;1.73;;;21.60;78.40;;;;;;5052910;28;20597;-71
2022/03/26 00:49:41;;;;;;;9.57;3.60;;;21.70;78.40;;;;;;5043000;28;20636;-71
2022/03/26 00:52:08;;;;;;;9.23;1.97;;;21.80;78.20;;;;;;5053283;28;20263;-71
2022/03/26 00:54:35;;;;;;;10.07;3.40;;;21.80;77.90;;;;;;5050945;28;20234;-74
2022/03/26 00:57:03;;;;;;;3.83;2.00;;;21.80;78.20;;;;;;5041503;28;20232;-71
2022/03/26 00:59:30;;;;;;;5.97;1.80;;;21.80;78.00;;;;;;5051471;28;20184;-71
2022/03/26 01:01:58;;;;;;;6.70;2.93;;;21.80;77.50;;;;;;5045705;28;20638;-71
2022/03/26 01:04:25;;;;;;;7.40;3.23;;;21.80;77.90;;;;;;5045257;28;20184;-71
2022/03/26 01:06:52;;;;;;;4.10;2.37;;;21.80;78.30;;;;;;5042413;28;20349;-72
2022/03/26 01:09:20;;;;;;;5.70;1.63;;;21.80;78.00;;;;;;5045089;28;20680;-72
2022/03/26 01:11:47;;;;;;;6.70;1.80;;;21.80;77.60;;;;;;5044388;28;20188;-72
2022/03/26 01:14:14;;;;;;;9.17;3.03;;;21.70;77.70;;;;;;5043589;28;20635;-71
2022/03/26 01:16:42;;;;;;;7.60;4.00;;;21.70;77.90;;;;;;5051358;28;20254;-71
2022/03/26 01:19:10;;;;;;;10.63;3.40;;;21.80;78.10;;;;;;5048926;28;20176;-71
2022/03/26 01:21:37;;;;;;;3.70;1.50;;;21.70;77.90;;;;;;5032831;28;20189;-71
2022/03/26 01:24:05;;;;;;;5.60;1.80;;;21.60;77.70;;;;;;5032042;28;20593;-72
2022/03/26 01:26:33;;;;;;;10.17;2.07;;;21.70;77.90;;;;;;5032980;28;20231;-73
2022/03/26 01:29:01;;;;;;;8.17;5.03;;;21.60;79.10;;;;;;5037286;28;20280;-75
2022/03/26 01:31:31;;;;;;;9.50;4.37;;;21.50;80.40;;;;;;5043413;28;20219;-75
2022/03/26 01:34:00;;;;;;;9.57;4.33;;;21.50;81.90;;;;;;5042467;28;20268;-77
2022/03/26 01:36:28;;;;;;;5.70;1.93;;;21.50;82.90;;;;;;5042364;28;20591;-78
2022/03/26 01:38:56;;;;;;;9.00;2.90;;;21.30;82.50;;;;;;5035411;28;20267;-77
2022/03/26 01:41:24;;;;;;;8.50;4.27;;;21.30;82.50;;;;;;5047008;28;20183;-77
2022/03/26 01:43:51;;;;;;;5.60;2.13;;;21.40;82.40;;;;;;5047229;28;20360;-76
2022/03/26 01:46:20;;;;;;;7.90;2.40;;;21.40;82.10;;;;;;5052742;28;20281;-75
2022/03/26 01:48:49;;;;;;;3.57;1.83;;;21.70;83.10;;;;;;5034530;28;20239;-76
2022/03/26 01:51:16;;;;;;;3.47;1.40;;;21.80;82.40;;;;;;5062747;28;20232;-76
2022/03/26 01:53:49;;;;;;;6.23;1.70;;;21.80;81.70;;;;;;5045017;28;20660;-75
2022/03/26 01:56:19;;;;;;;6.40;1.53;;;22.00;81.70;;;;;;5047825;28;20230;-75
2022/03/26 01:58:46;;;;;;;4.23;1.33;;;22.10;80.60;;;;;;5046046;28;20180;-74
2022/03/26 02:01:14;;;;;;;6.03;1.67;;;22.30;80.00;;;;;;5055246;28;20188;-75
2022/03/26 02:03:42;;;;;;;10.63;1.67;;;22.50;79.00;;;;;;5047388;28;20191;-73
2022/03/26 02:06:09;;;;;;;2.47;1.10;;;22.60;76.70;;;;;;5050372;28;20593;-74
2022/03/26 02:08:36;;;;;;;4.17;1.40;;;22.80;77.00;;;;;;5052142;28;20168;-74
2022/03/26 02:11:05;;;;;;;3.03;1.40;;;23.00;77.10;;;;;;5051642;28;20689;-73
2022/03/26 02:13:50;;;;;;;5.77;1.50;;;23.20;74.20;;;;;;5040511;28;20177;-73
2022/03/26 02:16:18;;;;;;;4.03;1.40;;;23.00;74.90;;;;;;5047544;28;20187;-72
2022/03/26 02:18:45;;;;;;;4.07;1.30;;;23.20;75.40;;;;;;5045132;28;20246;-75
2022/03/26 02:21:13;;;;;;;3.97;1.20;;;23.30;74.50;;;;;;5047311;28;20770;-75
2022/03/26 02:23:41;;;;;;;10.80;4.70;;;23.30;73.90;;;;;;5047834;28;20187;-76
2022/03/26 02:26:08;;;;;;;7.77;3.63;;;23.10;74.20;;;;;;5046700;28;20606;-74
2022/03/26 02:28:42;;;;;;;3.73;1.20;;;23.30;71.90;;;;;;5042887;28;20180;-72
2022/03/26 02:31:12;;;;;;;7.00;2.00;;;23.30;71.90;;;;;;5040035;28;20171;-72
2022/03/26 02:33:41;;;;;;;3.43;1.50;;;23.20;71.00;;;;;;5046735;28;20183;-74
2022/03/26 02:36:09;;;;;;;7.00;1.40;;;23.20;72.20;;;;;;5045042;28;20175;-74
2022/03/26 02:38:38;;;;;;;5.30;1.30;;;23.00;72.00;;;;;;5033618;28;20235;-73
2022/03/26 02:41:07;;;;;;;5.33;1.30;;;23.00;72.30;;;;;;5051184;28;20697;-73
2022/03/26 02:43:35;;;;;;;4.00;1.30;;;22.80;72.30;;;;;;5049734;28;20222;-73
2022/03/26 02:46:03;;;;;;;4.33;1.53;;;22.60;72.80;;;;;;5047858;28;20222;-73
2022/03/26 02:48:31;;;;;;;7.80;1.57;;;22.40;74.50;;;;;;5052178;28;20698;-72
2022/03/26 02:50:59;;;;;;;4.33;1.43;;;22.40;74.80;;;;;;5051402;28;20180;-71
2022/03/26 02:53:26;;;;;;;4.00;1.33;;;22.50;73.80;;;;;;5048995;28;20266;-72
2022/03/26 02:55:53;;;;;;;5.83;1.33;;;22.40;73.00;;;;;;5046129;28;20187;-72
2022/03/26 02:58:21;;;;;;;4.57;1.50;;;22.40;72.60;;;;;;5045582;28;20218;-72
2022/03/26 03:00:49;;;;;;;4.70;1.37;;;22.30;73.80;;;;;;5050275;28;20214;-73
2022/03/26 03:03:16;;;;;;;4.50;1.67;;;22.30;73.70;;;;;;5050005;28;20674;-73
2022/03/26 03:05:46;;;;;;;3.90;1.40;;;22.30;73.30;;;;;;5049475;28;20651;-71
2022/03/26 03:08:15;;;;;;;6.63;1.57;;;22.30;74.10;;;;;;5049893;28;20208;-71
2022/03/26 03:10:44;;;;;;;5.73;1.63;;;22.30;75.10;;;;;;5046895;28;20186;-71
2022/03/26 03:13:14;;;;;;;7.23;2.10;;;22.20;73.80;;;;;;5053990;28;20204;-71
2022/03/26 03:15:43;;;;;;;3.87;1.37;;;22.30;73.90;;;;;;5051997;28;20180;-72
2022/03/26 03:18:10;;;;;;;4.67;1.50;;;22.40;73.70;;;;;;5053390;28;20700;-72
2022/03/26 03:20:37;;;;;;;3.33;1.27;;;22.60;73.60;;;;;;5052858;28;20263;-71
2022/03/26 03:23:09;;;;;;;5.33;1.70;;;22.70;73.40;;;;;;5054229;28;20286;-72
2022/03/26 03:25:36;;;;;;;5.13;1.63;;;22.50;73.70;;;;;;5052162;28;20510;-73
2022/03/26 03:28:04;;;;;;;6.17;2.23;;;22.40;73.80;;;;;;5053410;28;20180;-72
2022/03/26 03:30:32;;;;;;;6.13;1.90;;;22.60;75.50;;;;;;5052331;28;20184;-72
2022/03/26 03:32:59;;;;;;;3.77;1.40;;;22.60;76.70;;;;;;5053673;28;20304;-73
2022/03/26 03:35:26;;;;;;;3.87;1.80;;;22.50;76.40;;;;;;5053783;28;20175;-72
2022/03/26 03:37:54;;;;;;;12.63;2.10;;;22.30;75.50;;;;;;5051337;28;20241;-73
2022/03/26 03:40:21;;;;;;;10.47;2.93;;;22.30;76.10;;;;;;5047133;28;20179;-72
2022/03/26 03:42:48;;;;;;;7.37;3.20;;;22.20;76.10;;;;;;5052191;28;20579;-73
2022/03/26 03:45:16;;;;;;;3.70;1.53;;;22.20;75.80;;;;;;5052667;28;20184;-72
2022/03/26 03:47:43;;;;;;;5.53;3.23;;;22.00;74.50;;;;;;5050705;28;20220;-72
2022/03/26 03:50:11;;;;;;;7.27;1.70;;;21.90;74.40;;;;;;5051150;28;20190;-72
2022/03/26 03:52:38;;;;;;;3.03;1.20;;;21.90;73.90;;;;;;5053234;28;20199;-73
2022/03/26 03:55:07;;;;;;;6.63;1.70;;;21.90;73.00;;;;;;5050391;28;20234;-73
2022/03/26 03:57:38;;;;;;;4.13;1.63;;;21.90;73.20;;;;;;5050290;28;20194;-73
2022/03/26 04:00:06;;;;;;;6.73;1.57;;;22.00;73.70;;;;;;5051921;28;20299;-72
2022/03/26 04:02:34;;;;;;;6.77;1.60;;;22.20;72.90;;;;;;5050532;28;20635;-73
2022/03/26 04:05:02;;;;;;;3.73;1.40;;;22.30;72.40;;;;;;5051375;28;20192;-72
2022/03/26 04:07:29;;;;;;;4.50;1.20;;;22.30;72.60;;;;;;5049946;28;20223;-73
2022/03/26 04:09:56;;;;;;;4.60;1.30;;;22.30;71.40;;;;;;5051823;28;20211;-73
2022/03/26 04:12:25;;;;;;;2.90;1.07;;;22.40;72.10;;;;;;5050624;28;20646;-73
2022/03/26 04:14:53;;;;;;;2.83;1.30;;;22.40;71.20;;;;;;5049038;28;20255;-74
2022/03/26 04:17:20;;;;;;;7.73;1.63;;;22.40;71.50;;;;;;5048358;28;20504;-73
2022/03/26 04:19:48;;;;;;;3.13;1.50;;;22.30;71.40;;;;;;5050412;28;20183;-75
2022/03/26 04:22:15;;;;;;;5.97;1.20;;;22.30;71.70;;;;;;5051505;28;20665;-73
2022/03/26 04:24:42;;;;;;;3.53;1.20;;;22.40;72.00;;;;;;5052927;28;20188;-74
2022/03/26 04:27:10;;;;;;;7.17;1.10;;;22.50;71.80;;;;;;5048678;28;20212;-73
2022/03/26 04:29:37;;;;;;;3.37;1.20;;;22.50;72.20;;;;;;5044797;28;20691;-74
2022/03/26 04:32:05;;;;;;;1.93;1.20;;;22.60;72.30;;;;;;5047617;28;20499;-73
2022/03/26 04:34:32;;;;;;;7.20;3.53;;;22.60;71.20;;;;;;5052179;28;20285;-71
2022/03/26 04:37:00;;;;;;;3.77;2.23;;;22.40;69.70;;;;;;5052831;28;20180;-70
2022/03/26 04:39:27;;;;;;;7.87;2.23;;;22.50;70.40;;;;;;5049535;28;20276;-72
2022/03/26 04:41:55;;;;;;;4.63;2.77;;;22.50;69.60;;;;;;5033334;28;20540;-71
2022/03/26 04:44:22;;;;;;;3.37;1.10;;;22.40;69.50;;;;;;5032374;28;20219;-69
2022/03/26 04:46:49;;;;;;;3.27;1.07;;;22.40;69.50;;;;;;5044868;28;20199;-69
2022/03/26 04:49:20;;;;;;;3.03;1.10;;;22.30;69.40;;;;;;5049681;28;20181;-72
2022/03/26 04:51:47;;;;;;;3.00;0.97;;;22.40;70.10;;;;;;5036584;28;20211;-72
2022/03/26 04:54:15;;;;;;;3.43;1.03;;;22.30;70.10;;;;;;5050804;28;20183;-72
2022/03/26 04:56:42;;;;;;;2.07;0.93;;;22.20;70.80;;;;;;5053422;28;20168;-72
2022/03/26 04:59:09;;;;;;;5.03;1.37;;;22.20;71.20;;;;;;5045017;28;20667;-73
2022/03/26 05:01:37;;;;;;;4.97;1.17;;;22.10;70.20;;;;;;5044204;28;20180;-72
2022/03/26 05:04:04;;;;;;;4.50;1.20;;;22.10;70.20;;;;;;5047913;28;20195;-75
2022/03/26 05:06:31;;;;;;;3.70;1.00;;;22.00;70.20;;;;;;5050191;28;20285;-73
2022/03/26 05:08:59;;;;;;;2.33;1.10;;;22.00;70.70;;;;;;5050135;28;20188;-70
2022/03/26 05:11:26;;;;;;;5.90;2.70;;;22.00;71.80;;;;;;5047739;28;20647;-72
2022/03/26 05:13:53;;;;;;;8.33;5.97;;;22.00;72.10;;;;;;5046669;28;20721;-72
2022/03/26 05:16:21;;;;;;;8.07;4.90;;;22.10;72.10;;;;;;5051200;28;20196;-72
2022/03/26 05:18:48;;;;;;;6.33;4.40;;;22.00;72.80;;;;;;5047731;28;20215;-72
2022/03/26 05:21:15;;;;;;;4.13;1.27;;;22.00;73.00;;;;;;5051225;28;20238;-72
2022/03/26 05:23:43;;;;;;;3.80;1.30;;;22.00;73.30;;;;;;5052470;28;20658;-73
2022/03/26 05:26:10;;;;;;;2.67;1.17;;;22.00;73.60;;;;;;5052138;28;20326;-74
2022/03/26 05:28:37;;;;;;;9.33;3.77;;;22.00;73.80;;;;;;5051965;28;20199;-72
2022/03/26 05:31:05;;;;;;;9.40;4.60;;;22.10;74.60;;;;;;5049783;28;20599;-74
2022/03/26 05:33:33;;;;;;;5.10;2.13;;;22.20;74.40;;;;;;5049078;28;20192;-72
2022/03/26 05:36:00;;;;;;;4.40;1.20;;;22.40;74.00;;;;;;5051988;28;20665;-75
2022/03/26 05:38:27;;;;;;;2.67;1.30;;;22.30;73.30;;;;;;5051435;28;20191;-72
2022/03/26 05:40:55;;;;;;;4.60;1.27;;;22.30;73.10;;;;;;5051957;28;20199;-73
2022/03/26 05:43:23;;;;;;;6.93;1.30;;;22.40;73.10;;;;;;5043448;28;20262;-72
2022/03/26 05:45:51;;;;;;;4.20;1.17;;;22.30;73.50;;;;;;5050303;28;20250;-73
2022/03/26 05:48:19;;;;;;;2.80;0.97;;;22.30;73.10;;;;;;5033079;28;20639;-72
2022/03/26 05:50:47;;;;;;;5.10;1.23;;;22.30;72.90;;;;;;5038314;28;20180;-74
2022/03/26 05:53:14;;;;;;;3.53;1.30;;;22.30;72.70;;;;;;5047150;28;20176;-73
2022/03/26 05:55:41;;;;;;;3.70;1.13;;;22.20;73.00;;;;;;5051233;28;20206;-76
2022/03/26 05:58:10;;;;;;;3.67;1.10;;;22.20;73.30;;;;;;5050317;28;20175;-72
2022/03/26 06:00:37;;;;;;;5.03;1.30;;;22.00;73.90;;;;;;5052395;28;20203;-75
2022/03/26 06:03:05;;;;;;;2.97;1.03;;;21.90;74.00;;;;;;5052554;28;20222;-73
2022/03/26 06:05:32;;;;;;;5.30;1.43;;;21.90;74.00;;;;;;5051987;28;20211;-73
2022/03/26 06:08:00;;;;;;;4.50;1.40;;;21.90;74.50;;;;;;5051156;28;20318;-73
2022/03/26 06:10:28;;;;;;;3.87;1.60;;;21.90;74.60;;;;;;5055575;28;20221;-71
2022/03/26 06:12:58;;;;;;;6.30;1.60;;;22.00;73.50;;;;;;5044078;28;20639;-72
2022/03/26 06:15:26;;;;;;;3.90;1.40;;;21.90;73.20;;;;;;5051215;28;20176;-73
2022/03/26 06:17:53;;;;;;;3.70;1.40;;;21.90;72.50;;;;;;5051083;28;20544;-73
2022/03/26 06:20:20;;;;;;;3.60;1.10;;;21.80;73.40;;;;;;5050134;28;20195;-71
2022/03/26 06:22:48;;;;;;;4.60;1.27;;;21.90;73.60;;;;;;5051400;28;20536;-73
2022/03/26 06:25:15;;;;;;;4.63;1.57;;;22.00;73.80;;;;;;5051818;28;20194;-73
2022/03/26 06:27:42;;;;;;;5.03;1.53;;;22.10;73.20;;;;;;5052077;28;20306;-74
2022/03/26 06:30:11;;;;;;;4.20;1.40;;;22.00;73.40;;;;;;5051168;28;20176;-75
2022/03/26 06:32:39;;;;;;;4.17;1.13;;;22.10;72.70;;;;;;5051352;28;20187;-72
2022/03/26 06:35:07;;;;;;;5.13;1.20;;;21.90;72.70;;;;;;5051945;28;20188;-73
2022/03/26 06:37:34;;;;;;;6.50;1.27;;;21.90;72.50;;;;;;5042318;28;20188;-73
2022/03/26 06:40:02;;;;;;;9.47;1.83;;;21.80;72.90;;;;;;5031986;28;20667;-75
2022/03/26 06:42:29;;;;;;;3.13;1.40;;;21.70;72.70;;;;;;5048914;28;20187;-74
2022/03/26 06:44:59;;;;;;;6.10;1.50;;;21.70;73.30;;;;;;5055083;28;20196;-73
2022/03/26 06:47:27;;;;;;;2.83;1.30;;;21.60;73.40;;;;;;5055483;28;20685;-73
2022/03/26 06:49:58;;;;;;;2.33;1.10;;;21.60;74.00;;;;;;5050546;28;20180;-77
2022/03/26 06:52:28;;;;;;;4.97;1.80;;;21.60;73.30;;;;;;5054157;28;20249;-78
2022/03/26 06:54:55;;;;;;;5.23;1.60;;;21.60;73.00;;;;;;5049010;28;20211;-77
2022/03/26 06:57:23;;;;;;;8.03;1.47;;;21.60;72.30;;;;;;5043648;28;20240;-75
2022/03/26 06:59:55;;;;;;;7.60;1.70;;;21.60;72.50;;;;;;5042860;28;20184;-75
2022/03/26 07:02:23;;;;;;;3.67;1.40;;;21.60;72.40;;;;;;5055899;28;20202;-72
2022/03/26 07:04:54;;;;;;;4.40;1.30;;;21.70;72.50;;;;;;5057518;28;20259;-71
2022/03/26 07:07:21;;;;;;;5.93;1.90;;;21.60;72.80;;;;;;5065389;28;20318;-71
2022/03/26 07:09:49;;;;;;;3.57;1.50;;;21.60;72.50;;;;;;5064982;28;20200;-71
2022/03/26 07:12:16;;;;;;;2.47;1.20;;;21.60;72.70;;;;;;5054902;28;20177;-71
2022/03/26 07:14:44;;;;;;;3.57;1.30;;;21.50;72.20;;;;;;5054102;28;20649;-71
2022/03/26 07:17:11;;;;;;;3.40;1.60;;;21.40;72.10;;;;;;5055652;28;20184;-72
2022/03/26 07:19:41;;;;;;;7.57;1.37;;;21.40;72.50;;;;;;5040436;28;20216;-73
2022/03/26 07:22:09;;;;;;;5.50;1.33;;;21.40;72.50;;;;;;5053257;28;20232;-74
2022/03/26 07:24:36;;;;;;;4.40;1.50;;;21.40;72.80;;;;;;5054729;28;20184;-75
2022/03/26 07:27:04;;;;;;;5.60;1.57;;;21.30;73.10;;;;;;5039337;28;20212;-75
2022/03/26 07:29:32;;;;;;;3.53;1.80;;;21.30;73.10;;;;;;5035561;28;20191;-72
2022/03/26 07:32:00;;;;;;;3.53;1.50;;;21.30;73.20;;;;;;5041296;28;20203;-73
2022/03/26 07:34:27;;;;;;;6.13;1.70;;;21.30;73.60;;;;;;5049367;28;20225;-74
2022/03/26 07:36:55;;;;;;;3.87;1.30;;;21.30;73.90;;;;;;5051283;28;20180;-72
2022/03/26 07:39:22;;;;;;;2.97;1.30;;;21.20;74.00;;;;;;5055001;28;20176;-72
2022/03/26 07:41:50;;;;;;;4.40;1.37;;;21.20;74.40;;;;;;5051925;28;20230;-74
2022/03/26 07:44:17;;;;;;;4.33;1.30;;;21.20;74.80;;;;;;5052574;28;20207;-73
2022/03/26 07:46:44;;;;;;;7.93;2.10;;;21.20;74.60;;;;;;5045955;28;20211;-72
2022/03/26 07:49:12;;;;;;;6.07;1.77;;;21.20;75.00;;;;;;5053064;28;20227;-73
2022/03/26 07:51:39;;;;;;;5.27;1.47;;;21.10;75.20;;;;;;5047299;28;20391;-74
2022/03/26 07:54:06;;;;;;;5.00;1.60;;;21.10;75.40;;;;;;5049247;28;20195;-71
2022/03/26 07:56:34;;;;;;;7.93;1.60;;;21.10;75.90;;;;;;5053951;28;20168;-71
2022/03/26 07:59:01;;;;;;;4.13;1.50;;;21.10;76.00;;;;;;5053456;28;20196;-71
2022/03/26 08:01:28;;;;;;;3.70;1.93;;;21.00;76.00;;;;;;5046322;28;20185;-72
2022/03/26 08:03:56;;;;;;;4.40;1.63;;;21.00;76.40;;;;;;5044913;28;20203;-72
2022/03/26 08:06:24;;;;;;;3.50;1.60;;;20.90;76.60;;;;;;5054164;28;20271;-71
2022/03/26 08:08:51;;;;;;;6.27;1.63;;;20.90;76.50;;;;;;5053969;28;20237;-75
2022/03/26 08:11:19;;;;;;;7.00;2.10;;;20.90;76.60;;;;;;5053879;28;20179;-73
2022/03/26 08:13:47;;;;;;;6.57;2.00;;;20.90;76.80;;;;;;5041630;28;20189;-71
2022/03/26 08:16:14;;;;;;;4.87;1.80;;;20.90;76.90;;;;;;5054121;28;20548;-71
2022/03/26 08:18:44;;;;;;;4.97;1.80;;;20.90;77.10;;;;;;5054272;28;20187;-71
2022/03/26 08:21:11;;;;;;;9.30;2.40;;;20.80;77.10;;;;;;5052553;28;20191;-72
2022/03/26 08:23:39;;;;;;;6.00;1.97;;;20.80;77.40;;;;;;5052673;28;20203;-72
2022/03/26 08:26:26;;;;;;;4.03;1.90;;;20.80;77.40;;;;;;5054280;28;20216;-72
2022/03/26 08:28:55;;;;;;;4.17;1.50;;;20.80;77.30;;;;;;5054193;28;20595;-71
2022/03/26 08:31:24;;;;;;;4.37;1.87;;;20.90;77.30;;;;;;5054255;28;20527;-72
2022/03/26 08:33:51;;;;;;;6.53;2.03;;;20.80;77.80;;;;;;5054252;28;20250;-71
2022/03/26 08:36:19;;;;;;;6.47;1.87;;;20.80;79.40;;;;;;5047973;28;20237;-71
2022/03/26 08:38:48;;;;;;;7.50;1.80;;;20.50;81.30;;;;;;5034051;28;20177;-71
2022/03/26 08:41:21;;;;;;;5.83;1.70;;;20.40;82.80;;;;;;5033916;28;20678;-71
2022/03/26 08:43:52;;;;;;;4.60;1.47;;;20.10;81.80;;;;;;5034108;28;20680;-73
2022/03/26 08:46:20;;;;;;;7.00;1.90;;;20.00;82.90;;;;;;5033934;28;20220;-72
2022/03/26 08:48:49;;;;;;;5.90;2.10;;;19.90;83.60;;;;;;5052207;28;20180;-71
2022/03/26 08:51:17;;;;;;;7.50;2.30;;;19.90;84.20;;;;;;5053419;28;20179;-72
2022/03/26 08:53:45;;;;;;;5.97;1.87;;;19.90;84.30;;;;;;5053813;28;20199;-72
2022/03/26 08:56:12;;;;;;;7.73;2.20;;;19.80;84.30;;;;;;5053471;28;20164;-72
2022/03/26 08:58:40;;;;;;;6.63;2.20;;;19.80;84.40;;;;;;5053451;28;20233;-72
2022/03/26 09:01:07;;;;;;;7.37;1.93;;;19.80;84.30;;;;;;5053656;28;20180;-72
2022/03/26 09:03:40;;;;;;;6.33;2.10;;;19.80;84.40;;;;;;5041351;28;20694;-72
2022/03/26 09:06:08;;;;;;;9.20;2.93;;;19.80;84.10;;;;;;5050873;28;20211;-72
2022/03/26 09:08:36;;;;;;;5.30;2.23;;;19.70;83.80;;;;;;5053331;28;20259;-73
2022/03/26 09:11:04;;;;;;;5.93;2.33;;;19.70;83.50;;;;;;5053390;28;20168;-72
2022/03/26 09:13:32;;;;;;;7.93;2.70;;;19.70;83.60;;;;;;5053399;28;20180;-73
2022/03/26 09:16:00;;;;;;;6.93;2.77;;;19.70;83.70;;;;;;5053211;28;20266;-71
2022/03/26 09:18:28;;;;;;;13.77;3.60;;;19.70;83.70;;;;;;5053315;28;20586;-72
2022/03/26 09:20:56;;;;;;;6.30;3.03;;;19.70;83.60;;;;;;5034272;28;20662;-71
2022/03/26 09:23:24;;;;;;;9.70;4.00;;;19.60;83.50;;;;;;5033327;28;20180;-72
2022/03/26 09:25:51;;;;;;;8.13;3.40;;;19.60;83.50;;;;;;5033173;28;20176;-72
2022/03/26 09:28:19;;;;;;;6.73;2.97;;;19.60;83.90;;;;;;5033093;28;20169;-73
2022/03/26 09:30:46;;;;;;;7.97;3.00;;;19.60;83.80;;;;;;5032833;28;20187;-72
2022/03/26 09:33:13;;;;;;;8.13;2.80;;;19.50;83.70;;;;;;5046499;28;20215;-72
2022/03/26 09:35:41;;;;;;;10.87;3.27;;;19.60;83.90;;;;;;5052772;28;20175;-72
2022/03/26 09:38:08;;;;;;;4.57;2.30;;;19.50;84.30;;;;;;5053073;28;20525;-72
2022/03/26 09:40:37;;;;;;;10.87;3.50;;;19.50;84.90;;;;;;5052824;28;20305;-73
2022/03/26 09:43:04;;;;;;;5.67;2.40;;;19.60;84.70;;;;;;5052823;28;20183;-73
2022/03/26 09:45:32;;;;;;;6.90;2.70;;;19.50;84.90;;;;;;5053097;28;20172;-73
2022/03/26 09:47:59;;;;;;;7.73;2.37;;;19.50;85.10;;;;;;5040540;28;20219;-71
2022/03/26 09:50:26;;;;;;;5.43;2.23;;;19.40;85.20;;;;;;5032697;28;20176;-73
2022/03/26 09:52:56;;;;;;;7.60;2.03;;;19.30;85.10;;;;;;5031712;28;20688;-72
2022/03/26 09:55:24;;;;;;;8.30;2.57;;;19.20;85.20;;;;;;5032315;28;20694;-74
2022/03/26 09:57:52;;;;;;;10.80;2.77;;;19.10;85.80;;;;;;5032826;28;20230;-72
2022/03/26 10:00:19;;;;;;;11.87;2.93;;;19.10;85.50;;;;;;5032842;28;20185;-73
2022/03/26 10:02:47;;;;;;;9.60;2.40;;;19.00;85.70;;;;;;5044528;28;20172;-73
2022/03/26 10:05:19;;;;;;;7.13;2.07;;;18.90;85.70;;;;;;5046985;28;20184;-74
2022/03/26 10:07:48;;;;;;;5.13;2.23;;;18.80;85.80;;;;;;5032486;28;20302;-74
2022/03/26 10:10:26;;;;;;;7.53;2.33;;;18.80;86.10;;;;;;5030649;28;20181;-73
2022/03/26 10:12:53;;;;;;;8.77;2.80;;;18.70;86.10;;;;;;5032346;28;20939;-75
2022/03/26 10:15:21;;;;;;;5.53;2.20;;;18.70;86.60;;;;;;5039965;28;20178;-73
2022/03/26 10:17:49;;;;;;;5.27;2.40;;;18.60;86.90;;;;;;5053946;28;20172;-73
2022/03/26 10:20:19;;;;;;;5.40;2.00;;;18.60;87.10;;;;;;5056610;28;20222;-73
2022/03/26 10:22:50;;;;;;;9.83;2.40;;;18.60;87.20;;;;;;5056447;28;20227;-74
2022/03/26 10:25:23;;;;;;;6.13;2.37;;;18.50;87.30;;;;;;5056734;28;20190;-73
2022/03/26 10:27:59;;;;;;;8.47;2.00;;;18.50;87.30;;;;;;5056188;28;20279;-74
2022/03/26 10:33:27;;;;;;;8.20;2.30;;;18.50;87.30;;;;;;5041054;28;20206;-74
2022/03/26 10:36:02;;;;;;;10.17;2.20;;;18.50;87.60;;;;;;5056232;28;20203;-74
2022/03/26 10:38:31;;;;;;;4.90;2.07;;;18.40;87.90;;;;;;5056271;28;20263;-72
2022/03/26 10:41:05;;;;;;;9.40;2.97;;;18.40;88.00;;;;;;5041838;28;20585;-74
2022/03/26 10:43:32;;;;;;;8.37;2.13;;;18.30;88.20;;;;;;5036272;28;20587;-74
2022/03/26 10:46:01;;;;;;;8.83;3.13;;;18.30;88.60;;;;;;5036363;28;20215;-74
2022/03/26 10:48:34;;;;;;;8.50;2.67;;;18.30;88.60;;;;;;5037149;28;20235;-72
2022/03/26 10:51:07;;;;;;;10.10;2.73;;;18.20;88.60;;;;;;5039233;28;20211;-72
2022/03/26 10:53:36;;;;;;;8.80;2.83;;;18.20;89.10;;;;;;5043288;28;20184;-72
2022/03/26 10:56:12;;;;;;;5.40;2.73;;;18.10;89.10;;;;;;5047356;28;20180;-71
2022/03/26 10:58:41;;;;;;;6.70;2.70;;;18.10;89.50;;;;;;5050921;28;20618;-73
2022/03/26 11:01:09;;;;;;;5.57;2.77;;;18.00;89.50;;;;;;5056110;28;20180;-71
2022/03/26 11:03:37;;;;;;;9.80;3.13;;;18.10;89.50;;;;;;5052971;28;20696;-72
2022/03/26 11:06:09;;;;;;;8.60;2.90;;;18.00;89.70;;;;;;5054852;28;20184;-73
2022/03/26 11:08:38;;;;;;;8.93;3.20;;;18.10;89.90;;;;;;5048125;28;20188;-73
2022/03/26 11:11:10;;;;;;;9.97;3.07;;;18.00;89.70;;;;;;5053690;28;20171;-73
2022/03/26 11:13:49;;;;;;;8.00;3.43;;;17.90;90.00;;;;;;5061415;28;20211;-74
2022/03/26 11:16:34;;;;;;;9.17;3.30;;;17.90;89.80;;;;;;5054668;28;20172;-72
2022/03/26 11:19:31;;;;;;;9.63;4.10;;;17.90;90.00;;;;;;5050584;28;20278;-74
2022/03/26 11:22:37;;;;;;;5.23;3.10;;;17.80;90.20;;;;;;5053701;28;20260;-72
2022/03/26 11:25:25;;;;;;;7.47;3.07;;;17.80;90.50;;;;;;5038143;28;20194;-72
2022/03/26 11:28:26;;;;;;;15.67;4.40;;;17.80;90.80;;;;;;5035199;28;20701;-72
2022/03/26 11:31:06;;;;;;;5.20;2.93;;;17.80;90.80;;;;;;5052724;28;20187;-72
2022/03/26 11:33:38;;;;;;;7.80;3.30;;;17.80;91.00;;;;;;5054745;28;20204;-72
2022/03/26 11:36:10;;;;;;;8.20;3.70;;;17.80;91.10;;;;;;5054692;28;20171;-73
2022/03/26 11:38:38;;;;;;;5.93;3.40;;;17.70;90.90;;;;;;5053446;28;20186;-72
2022/03/26 11:41:09;;;;;;;9.50;3.70;;;17.60;91.20;;;;;;5034773;28;20213;-73
2022/03/26 11:43:46;;;;;;;9.23;3.20;;;17.60;91.30;;;;;;5035398;28;20190;-73
2022/03/26 11:52:28;;;;;;;8.47;3.87;;;17.60;91.70;;;;;;5035115;28;20236;-72
2022/03/26 11:55:24;;;;;;;8.83;3.90;;;17.60;91.60;;;;;;5044677;28;20191;-73
2022/03/26 11:58:26;;;;;;;6.40;3.90;;;17.70;91.70;;;;;;5053950;28;20266;-72
2022/03/26 12:00:59;;;;;;;10.60;4.33;;;17.70;91.90;;;;;;5023096;28;20188;-73
2022/03/26 12:03:29;;;;;;;11.97;4.57;;;17.70;91.80;;;;;;5040463;28;20240;-72
2022/03/26 12:08:52;;;;;;;11.63;4.50;;;17.70;91.80;;;;;;5035530;28;20203;-74
2022/03/26 12:11:26;;;;;;;8.63;4.40;;;17.70;91.90;;;;;;5032624;28;20172;-72
2022/03/26 12:14:08;;;;;;;13.53;5.27;;;17.80;92.00;;;;;;5036463;28;20179;-74
2022/03/26 12:16:54;;;;;;;14.93;5.77;;;17.80;92.20;;;;;;5057875;28;20269;-73
2022/03/26 12:19:41;;;;;;;11.07;5.83;;;17.80;92.90;;;;;;5056030;28;20232;-73
2022/03/26 12:22:26;;;;;;;14.03;6.23;;;17.80;93.20;;;;;;5054149;28;20179;-75
2022/03/26 12:24:58;;;;;;;13.00;6.10;;;17.90;93.40;;;;;;5050652;28;20187;-76
2022/03/26 12:27:26;;;;;;;11.23;6.00;;;17.90;93.50;;;;;;5052400;28;20560;-73
2022/03/26 12:29:58;;;;;;;10.13;6.17;;;17.90;93.50;;;;;;5053640;28;20238;-75
2022/03/26 12:32:34;;;;;;;11.57;6.77;;;17.80;93.50;;;;;;5053911;28;20179;-75
2022/03/26 12:35:09;;;;;;;8.50;5.60;;;17.80;93.60;;;;;;5053944;28;20600;-74
2022/03/26 12:37:38;;;;;;;18.60;6.17;;;17.80;93.60;;;;;;5054018;28;20178;-74
2022/03/26 12:40:11;;;;;;;13.83;7.03;;;17.80;93.70;;;;;;5053850;28;20191;-74
2022/03/26 12:42:39;;;;;;;9.13;6.90;;;17.70;93.70;;;;;;5046628;28;20184;-74
2022/03/26 12:45:17;;;;;;;15.13;7.60;;;17.70;93.60;;;;;;5034611;28;20532;-74
2022/03/26 12:47:49;;;;;;;11.77;7.80;;;17.70;93.60;;;;;;5035490;28;20660;-75
2022/03/26 12:50:23;;;;;;;9.90;7.00;;;17.60;93.70;;;;;;5053593;28;20180;-74
2022/03/26 12:52:51;;;;;;;9.67;6.73;;;17.70;93.70;;;;;;5053725;28;20183;-74
2022/03/26 12:55:19;;;;;;;11.10;6.53;;;17.70;93.60;;;;;;5051766;28;20543;-74
2022/03/26 13:00:34;;;;;;;8.43;6.30;;;17.70;93.60;;;;;;5040229;28;20245;-71
2022/03/26 13:03:10;;;;;;;12.10;6.77;;;17.70;93.60;;;;;;5045427;28;20233;-73
2022/03/26 13:05:40;;;;;;;12.13;6.70;;;17.70;93.60;;;;;;5049348;28;20211;-73
2022/03/26 13:08:15;;;;;;;9.50;6.07;;;17.70;93.60;;;;;;5053112;28;20254;-73
2022/03/26 13:10:43;;;;;;;6.80;6.03;;;17.80;93.60;;;;;;5047372;28;20282;-72